Time;durP1;ratioP1;P1;durP2;ratioP2;P2;SDS_P1;SDS_P2;PMS_P1;PMS_P2;Temp;Humidity;BMP_temperature;BMP_pressure;BME280_temperature;BME280_humidity;BME280_pressure;Samples;Min_cycle;Max_cycle;Signal;HPM_P1;HPM_P2
2021/05/29 00:01:27;;;;;;;;;;;9.30;88.50;;;;;;5003831;28;19948;-69
2021/05/29 00:03:53;;;;;;;;;;;9.30;89.00;;;;;;5003696;28;19921;-69
2021/05/29 00:06:18;;;;;;;;;;;9.30;89.20;;;;;;5004143;28;19922;-69
2021/05/29 00:08:44;;;;;;;;;;;9.20;88.50;;;;;;5002216;28;19987;-69
2021/05/29 00:11:10;;;;;;;;;;;9.30;88.70;;;;;;5002964;28;19918;-69
2021/05/29 00:13:37;;;;;;;;;;;9.30;88.50;;;;;;4994531;28;19917;-69
2021/05/29 00:16:02;;;;;;;;;;;9.30;88.80;;;;;;5002319;28;20212;-67
2021/05/29 00:18:28;;;;;;;;;;;9.30;88.80;;;;;;5002461;28;20128;-69
2021/05/29 00:20:54;;;;;;;;;;;9.30;88.90;;;;;;5003011;28;19944;-70
2021/05/29 00:23:20;;;;;;;;;;;9.20;89.00;;;;;;5000804;28;19941;-69
2021/05/29 00:25:45;;;;;;;;;;;9.20;89.00;;;;;;5001673;28;20137;-69
2021/05/29 00:28:11;;;;;;;;;;;9.10;88.70;;;;;;4998782;28;19917;-70
2021/05/29 00:30:40;;;;;;;;;;;9.10;88.70;;;;;;4999714;28;20015;-69
2021/05/29 00:33:06;;;;;;;;;;;9.10;88.50;;;;;;4998649;28;20045;-70
2021/05/29 00:35:32;;;;;;;;;;;9.10;88.40;;;;;;5005167;28;20020;-71
2021/05/29 00:37:58;;;;;;;;;;;9.10;88.40;;;;;;4995976;28;20321;-69
2021/05/29 00:40:23;;;;;;;;;;;9.10;88.80;;;;;;5003491;28;19921;-70
2021/05/29 00:42:49;;;;;;;;;;;9.10;88.80;;;;;;5001328;28;19986;-70
2021/05/29 00:45:14;;;;;;;;;;;9.10;88.90;;;;;;5002093;28;20108;-70
2021/05/29 00:47:40;;;;;;;;;;;9.10;88.90;;;;;;5001058;28;20004;-68
2021/05/29 00:50:10;;;;;;;;;;;9.10;89.20;;;;;;4999982;28;19926;-70
2021/05/29 00:52:36;;;;;;;;;;;9.10;89.20;;;;;;5002841;28;19921;-70
2021/05/29 00:55:03;;;;;;;;;;;9.00;89.20;;;;;;5000461;28;19913;-71
2021/05/29 00:57:29;;;;;;;;;;;9.00;89.30;;;;;;4997044;28;19913;-69
2021/05/29 00:59:54;;;;;;;;;;;9.00;89.50;;;;;;5002226;28;19932;-69
2021/05/29 01:02:20;;;;;;;;;;;9.00;89.40;;;;;;5000184;28;19932;-71
2021/05/29 01:04:45;;;;;;;;;;;9.00;89.60;;;;;;5004220;28;19917;-69
2021/05/29 01:07:12;;;;;;;;;;;9.00;89.70;;;;;;5002343;28;20012;-69
2021/05/29 01:09:38;;;;;;;;;;;9.00;89.50;;;;;;5003802;28;20324;-70
2021/05/29 01:12:05;;;;;;;;;;;9.00;89.30;;;;;;5003913;28;19909;-69
2021/05/29 01:14:31;;;;;;;;;;;9.00;89.60;;;;;;5003057;28;19922;-72
2021/05/29 01:17:00;;;;;;;;;;;9.00;89.50;;;;;;4999062;28;20024;-70
2021/05/29 01:19:26;;;;;;;;;;;9.00;89.60;;;;;;5003052;28;19921;-69
2021/05/29 01:21:52;;;;;;;;;;;9.00;89.70;;;;;;4996465;28;19925;-69
2021/05/29 01:24:17;;;;;;;;;;;9.10;90.60;;;;;;5002260;28;19925;-69
2021/05/29 01:26:43;;;;;;;;;;;8.90;89.90;;;;;;5002003;28;20397;-69
2021/05/29 01:29:09;;;;;;;;;;;8.90;89.80;;;;;;4999134;28;19913;-70
2021/05/29 01:31:35;;;;;;;;;;;8.80;89.40;;;;;;5004466;28;20350;-69
2021/05/29 01:34:00;;;;;;;;;;;8.90;89.40;;;;;;5001762;28;19964;-71
2021/05/29 01:36:26;;;;;;;;;;;8.90;89.50;;;;;;5004864;28;20292;-70
2021/05/29 01:38:52;;;;;;;;;;;8.90;89.40;;;;;;5000492;28;20388;-70
2021/05/29 01:41:19;;;;;;;;;;;8.80;89.80;;;;;;4996828;28;20005;-70
2021/05/29 01:43:45;;;;;;;;;;;8.80;89.60;;;;;;5004761;28;20011;-70
2021/05/29 01:46:12;;;;;;;;;;;8.80;89.80;;;;;;4999890;28;20344;-71
2021/05/29 01:48:40;;;;;;;;;;;8.80;89.90;;;;;;5001622;28;20382;-69
2021/05/29 01:51:06;;;;;;;;;;;8.90;90.00;;;;;;5003982;28;19958;-69
2021/05/29 01:53:32;;;;;;;;;;;8.80;89.90;;;;;;5001743;28;20027;-69
2021/05/29 01:55:58;;;;;;;;;;;8.80;89.80;;;;;;5002636;28;20341;-69
2021/05/29 01:58:24;;;;;;;;;;;8.80;89.70;;;;;;4998969;28;19929;-69
2021/05/29 02:00:49;;;;;;;;;;;8.80;89.90;;;;;;5003697;28;20305;-68
2021/05/29 02:03:15;;;;;;;;;;;8.70;89.80;;;;;;5001223;28;19925;-69
2021/05/29 02:05:40;;;;;;;;;;;8.80;89.80;;;;;;5004088;28;19997;-69
2021/05/29 02:08:07;;;;;;;;;;;8.80;89.90;;;;;;5001329;28;19997;-69
2021/05/29 02:10:34;;;;;;;;;;;8.80;90.00;;;;;;5004005;28;19933;-71
2021/05/29 02:13:00;;;;;;;;;;;8.70;89.90;;;;;;5017189;28;19926;-69
2021/05/29 02:15:27;;;;;;;;;;;8.80;90.20;;;;;;5002389;28;20276;-69
2021/05/29 02:17:54;;;;;;;;;;;8.80;90.10;;;;;;4998294;28;19926;-69
2021/05/29 02:20:28;;;;;;;;;;;8.80;90.30;;;;;;5003613;28;19917;-70
2021/05/29 02:22:53;;;;;;;;;;;8.70;90.20;;;;;;4999589;28;20013;-71
2021/05/29 02:25:19;;;;;;;;;;;8.80;90.50;;;;;;5002813;28;19992;-69
2021/05/29 02:27:44;;;;;;;;;;;8.80;90.30;;;;;;4999360;28;20278;-69
2021/05/29 02:30:10;;;;;;;;;;;8.80;90.30;;;;;;5003366;28;19944;-70
2021/05/29 02:32:35;;;;;;;;;;;8.90;90.40;;;;;;5003155;28;19997;-69
2021/05/29 02:35:01;;;;;;;;;;;8.90;90.70;;;;;;5003679;28;20523;-71
2021/05/29 02:37:28;;;;;;;;;;;8.90;90.70;;;;;;5002093;28;19955;-69
2021/05/29 02:39:53;;;;;;;;;;;8.90;90.90;;;;;;5000642;28;19922;-69
2021/05/29 02:42:19;;;;;;;;;;;8.90;90.50;;;;;;5003044;28;19990;-72
2021/05/29 02:44:44;;;;;;;;;;;8.80;90.20;;;;;;4999849;28;20137;-69
2021/05/29 02:47:10;;;;;;;;;;;8.80;90.00;;;;;;5003324;28;20024;-69
2021/05/29 02:49:35;;;;;;;;;;;8.90;90.60;;;;;;4998396;28;19948;-69
2021/05/29 02:52:01;;;;;;;;;;;8.90;90.50;;;;;;5002429;28;20404;-69
2021/05/29 02:54:27;;;;;;;;;;;8.90;90.40;;;;;;4994886;28;20753;-71
2021/05/29 02:56:52;;;;;;;;;;;8.80;90.30;;;;;;5000221;28;19940;-70
2021/05/29 02:59:18;;;;;;;;;;;8.80;90.50;;;;;;4998675;28;20040;-69
2021/05/29 03:01:44;;;;;;;;;;;8.80;90.00;;;;;;4999386;28;20060;-70
2021/05/29 03:04:09;;;;;;;;;;;8.80;90.00;;;;;;4990201;28;19917;-67
2021/05/29 03:06:35;;;;;;;;;;;8.80;89.90;;;;;;4997319;28;20440;-70
2021/05/29 03:09:01;;;;;;;;;;;8.70;90.00;;;;;;4995501;28;19922;-69
2021/05/29 03:11:30;;;;;;;;;;;8.80;90.30;;;;;;5001937;28;19997;-69
2021/05/29 03:13:55;;;;;;;;;;;8.70;90.20;;;;;;4998258;28;19925;-69
2021/05/29 03:16:21;;;;;;;;;;;8.70;90.50;;;;;;5000978;28;20378;-71
2021/05/29 03:18:46;;;;;;;;;;;8.70;90.60;;;;;;5000442;28;19920;-71
2021/05/29 03:21:12;;;;;;;;;;;8.70;90.60;;;;;;4998835;28;20109;-69
2021/05/29 03:23:37;;;;;;;;;;;8.70;90.60;;;;;;4999371;28;20298;-69
2021/05/29 03:26:03;;;;;;;;;;;8.70;90.60;;;;;;5000989;28;19936;-69
2021/05/29 03:28:28;;;;;;;;;;;8.80;90.80;;;;;;5003598;28;20167;-69
2021/05/29 03:30:54;;;;;;;;;;;8.80;90.90;;;;;;5002586;28;20031;-69
2021/05/29 03:33:19;;;;;;;;;;;8.70;90.80;;;;;;5002732;28;20099;-71
2021/05/29 03:35:45;;;;;;;;;;;8.80;91.00;;;;;;5003113;28;20418;-72
2021/05/29 03:38:11;;;;;;;;;;;8.80;91.10;;;;;;4996893;28;19917;-69
2021/05/29 03:40:36;;;;;;;;;;;8.80;91.40;;;;;;5001386;28;19928;-69
2021/05/29 03:43:02;;;;;;;;;;;8.80;91.10;;;;;;5002437;28;20258;-69
2021/05/29 03:45:27;;;;;;;;;;;8.80;90.60;;;;;;5016520;28;19925;-70
2021/05/29 03:47:53;;;;;;;;;;;8.70;89.90;;;;;;4994818;28;19953;-70
2021/05/29 03:50:20;;;;;;;;;;;8.70;90.20;;;;;;5005284;28;20000;-70
2021/05/29 03:52:46;;;;;;;;;;;8.60;90.10;;;;;;5002238;28;20317;-71
2021/05/29 03:55:12;;;;;;;;;;;8.60;90.30;;;;;;5005807;28;19981;-69
2021/05/29 03:57:37;;;;;;;;;;;8.70;90.60;;;;;;4999696;28;20417;-70
2021/05/29 04:00:07;;;;;;;;;;;8.70;90.60;;;;;;4998533;28;20040;-70
2021/05/29 04:02:33;;;;;;;;;;;8.70;90.50;;;;;;5000795;28;20247;-68
2021/05/29 04:04:58;;;;;;;;;;;8.70;90.30;;;;;;5003630;28;19913;-70
2021/05/29 04:07:24;;;;;;;;;;;8.80;90.30;;;;;;5003617;28;19921;-70
2021/05/29 04:09:49;;;;;;;;;;;8.70;90.40;;;;;;5005994;28;20012;-69
2021/05/29 04:12:15;;;;;;;;;;;8.70;90.30;;;;;;5001911;28;19914;-70
2021/05/29 04:14:40;;;;;;;;;;;8.80;90.50;;;;;;5005411;28;19917;-69
2021/05/29 04:17:06;;;;;;;;;;;8.80;90.50;;;;;;5002516;28;20104;-69
2021/05/29 04:19:31;;;;;;;;;;;8.80;90.70;;;;;;5003406;28;19913;-71
2021/05/29 04:21:57;;;;;;;;;;;8.80;90.60;;;;;;4999384;28;19917;-70
2021/05/29 04:24:23;;;;;;;;;;;8.80;90.50;;;;;;5004120;28;19939;-71
2021/05/29 04:26:48;;;;;;;;;;;8.80;90.80;;;;;;5002404;28;19921;-69
2021/05/29 04:29:14;;;;;;;;;;;8.90;90.70;;;;;;5002598;28;19943;-70
2021/05/29 04:31:39;;;;;;;;;;;8.90;90.70;;;;;;5004902;28;20374;-69
2021/05/29 04:34:05;;;;;;;;;;;8.90;90.90;;;;;;5006566;28;19917;-70
2021/05/29 04:36:30;;;;;;;;;;;8.90;90.70;;;;;;5003814;28;20325;-70
2021/05/29 04:38:56;;;;;;;;;;;8.90;90.80;;;;;;5002450;28;19997;-71
2021/05/29 04:41:21;;;;;;;;;;;8.90;90.70;;;;;;5003882;28;19925;-69
2021/05/29 04:43:47;;;;;;;;;;;8.80;90.60;;;;;;4999616;28;20000;-69
2021/05/29 04:46:13;;;;;;;;;;;9.00;90.90;;;;;;5000482;28;19925;-69
2021/05/29 04:48:38;;;;;;;;;;;9.00;90.90;;;;;;5016679;28;19917;-69
2021/05/29 04:51:15;;;;;;;;;;;9.00;90.60;;;;;;5004053;28;19925;-70
2021/05/29 04:53:45;;;;;;;;;;;9.00;90.50;;;;;;5003758;28;19940;-70
2021/05/29 04:56:11;;;;;;;;;;;9.00;90.40;;;;;;5002416;28;20280;-71
2021/05/29 04:58:37;;;;;;;;;;;9.00;90.70;;;;;;5000112;28;19993;-70
2021/05/29 05:01:07;;;;;;;;;;;9.00;90.70;;;;;;5005323;28;19921;-70
2021/05/29 05:03:32;;;;;;;;;;;9.00;90.60;;;;;;5001615;28;20366;-71
2021/05/29 05:05:58;;;;;;;;;;;9.10;90.70;;;;;;5006020;28;20102;-69
2021/05/29 05:08:24;;;;;;;;;;;9.10;90.50;;;;;;5000905;28;20051;-70
2021/05/29 05:10:49;;;;;;;;;;;9.00;90.40;;;;;;5004673;28;19932;-71
2021/05/29 05:13:15;;;;;;;;;;;9.00;90.10;;;;;;5001764;28;20008;-70
2021/05/29 05:15:40;;;;;;;;;;;9.00;90.30;;;;;;5003743;28;19929;-70
2021/05/29 05:18:08;;;;;;;;;;;9.00;90.30;;;;;;5002668;28;19918;-70
2021/05/29 05:20:34;;;;;;;;;;;9.10;90.60;;;;;;5004365;28;19984;-71
2021/05/29 05:22:59;;;;;;;;;;;9.10;90.30;;;;;;5000253;28;20060;-70
2021/05/29 05:25:27;;;;;;;;;;;9.10;90.30;;;;;;5006120;28;20382;-70
2021/05/29 05:27:53;;;;;;;;;;;9.10;90.10;;;;;;5009201;28;19985;-71
2021/05/29 05:30:19;;;;;;;;;;;9.10;90.20;;;;;;5004712;28;19996;-71
2021/05/29 05:32:44;;;;;;;;;;;9.10;90.00;;;;;;5009999;28;20473;-68
2021/05/29 05:35:14;;;;;;;;;;;9.20;89.80;;;;;;5005188;28;19925;-70
2021/05/29 05:37:39;;;;;;;;;;;9.30;90.00;;;;;;5005716;28;19940;-69
2021/05/29 05:40:05;;;;;;;;;;;9.40;89.50;;;;;;5007114;28;19925;-69
2021/05/29 05:42:31;;;;;;;;;;;9.40;90.20;;;;;;5003407;28;19979;-68
2021/05/29 05:44:56;;;;;;;;;;;9.40;89.30;;;;;;5013938;28;19910;-69
2021/05/29 05:47:22;;;;;;;;;;;9.50;89.40;;;;;;5010852;28;19913;-69
2021/05/29 05:49:47;;;;;;;;;;;9.50;89.20;;;;;;5001844;28;19967;-68
2021/05/29 05:52:13;;;;;;;;;;;9.50;89.30;;;;;;5001710;28;20068;-69
2021/05/29 05:54:38;;;;;;;;;;;9.50;89.20;;;;;;5003016;28;20253;-68
2021/05/29 05:57:04;;;;;;;;;;;9.60;89.00;;;;;;5000759;28;19939;-68
2021/05/29 05:59:29;;;;;;;;;;;9.60;88.80;;;;;;5000602;28;20008;-68
2021/05/29 06:01:55;;;;;;;;;;;9.60;88.70;;;;;;4994794;28;20367;-68
2021/05/29 06:04:21;;;;;;;;;;;9.60;88.50;;;;;;4999318;28;19914;-70
2021/05/29 06:06:46;;;;;;;;;;;9.50;88.20;;;;;;5001752;28;19949;-67
2021/05/29 06:09:13;;;;;;;;;;;9.50;88.50;;;;;;4998987;28;19925;-67
2021/05/29 06:11:38;;;;;;;;;;;9.50;88.80;;;;;;5001481;28;20067;-69
2021/05/29 06:19:21;;;;;;;;;;;9.60;88.70;;;;;;4998859;28;19940;-69
2021/05/29 06:21:49;;;;;;;;;;;9.60;88.70;;;;;;4995218;28;20275;-68
2021/05/29 06:24:18;;;;;;;;;;;9.60;88.50;;;;;;4997385;28;20028;-68
2021/05/29 06:26:44;;;;;;;;;;;9.70;88.30;;;;;;4998520;28;19940;-69
2021/05/29 06:29:10;;;;;;;;;;;9.70;87.40;;;;;;4998686;28;19965;-68
2021/05/29 06:31:36;;;;;;;;;;;9.70;87.10;;;;;;4996009;28;19914;-69
2021/05/29 06:34:02;;;;;;;;;;;9.70;87.60;;;;;;5002222;28;20310;-69
2021/05/29 06:36:28;;;;;;;;;;;9.70;87.60;;;;;;5003496;28;19958;-69
2021/05/29 06:38:53;;;;;;;;;;;9.70;87.40;;;;;;4996824;28;19920;-68
2021/05/29 06:41:19;;;;;;;;;;;9.80;88.10;;;;;;4996137;28;19925;-69
2021/05/29 06:43:44;;;;;;;;;;;9.80;87.50;;;;;;4994210;28;19980;-69
2021/05/29 06:46:10;;;;;;;;;;;9.90;87.40;;;;;;4995536;28;20012;-68
2021/05/29 06:48:35;;;;;;;;;;;10.00;87.60;;;;;;4997963;28;19918;-69
2021/05/29 06:51:01;;;;;;;;;;;9.90;87.60;;;;;;5002638;28;20323;-69
2021/05/29 06:53:38;;;;;;;;;;;10.10;87.70;;;;;;4998046;28;20168;-69
2021/05/29 06:58:49;;;;;;;;;;;9.90;87.30;;;;;;4992048;28;19928;-69
2021/05/29 07:01:16;;;;;;;;;;;10.00;87.70;;;;;;4993816;28;19921;-68
2021/05/29 07:03:42;;;;;;;;;;;10.00;87.70;;;;;;4999222;28;19921;-70
2021/05/29 07:06:07;;;;;;;;;;;10.00;87.10;;;;;;4997464;28;20250;-68
2021/05/29 07:08:33;;;;;;;;;;;10.10;87.40;;;;;;4998985;28;20220;-69
2021/05/29 07:10:58;;;;;;;;;;;10.10;87.20;;;;;;4995294;28;20289;-69
2021/05/29 07:13:23;;;;;;;;;;;10.10;86.70;;;;;;4997767;28;19993;-69
2021/05/29 07:15:49;;;;;;;;;;;10.10;86.70;;;;;;4986882;28;19976;-69
2021/05/29 07:18:16;;;;;;;;;;;10.10;87.20;;;;;;4992400;28;19914;-69
2021/05/29 07:20:41;;;;;;;;;;;10.10;86.70;;;;;;4998743;28;20381;-69
2021/05/29 07:23:07;;;;;;;;;;;10.10;86.90;;;;;;4995560;28;19917;-68
2021/05/29 07:25:33;;;;;;;;;;;10.40;87.10;;;;;;5002731;28;20016;-70
2021/05/29 07:27:58;;;;;;;;;;;10.60;86.50;;;;;;5001522;28;20176;-69
2021/05/29 07:30:24;;;;;;;;;;;10.60;86.60;;;;;;5000700;28;19922;-69
2021/05/29 07:32:50;;;;;;;;;;;10.70;85.50;;;;;;5000372;28;19929;-69
2021/05/29 07:35:15;;;;;;;;;;;10.60;85.50;;;;;;5000968;28;19913;-70
2021/05/29 07:37:41;;;;;;;;;;;10.60;85.10;;;;;;5000087;28;19945;-69
2021/05/29 07:40:07;;;;;;;;;;;10.60;85.30;;;;;;5003593;28;19960;-69
2021/05/29 07:42:33;;;;;;;;;;;10.50;85.60;;;;;;4999712;28;20016;-69
2021/05/29 07:44:59;;;;;;;;;;;10.50;85.80;;;;;;4998108;28;19922;-70
2021/05/29 07:47:24;;;;;;;;;;;10.60;86.00;;;;;;4994955;28;20008;-69
2021/05/29 07:49:50;;;;;;;;;;;10.60;85.70;;;;;;5004840;28;20331;-69
2021/05/29 07:52:15;;;;;;;;;;;10.60;86.20;;;;;;4998488;28;19922;-69
2021/05/29 07:54:41;;;;;;;;;;;10.70;85.50;;;;;;5002927;28;19922;-69
2021/05/29 07:57:09;;;;;;;;;;;10.80;85.20;;;;;;4994314;28;20001;-70
2021/05/29 07:59:34;;;;;;;;;;;10.80;84.60;;;;;;5001825;28;19993;-70
2021/05/29 08:02:00;;;;;;;;;;;10.80;84.80;;;;;;4996784;28;20091;-69
2021/05/29 08:04:25;;;;;;;;;;;11.00;84.60;;;;;;4996347;28;19933;-68
2021/05/29 08:06:52;;;;;;;;;;;11.00;83.90;;;;;;5005095;28;19925;-70
2021/05/29 08:09:18;;;;;;;;;;;11.10;84.10;;;;;;4998445;28;19959;-68
2021/05/29 08:11:43;;;;;;;;;;;11.30;83.00;;;;;;4999453;28;20444;-70
2021/05/29 08:14:11;;;;;;;;;;;11.50;82.70;;;;;;5005456;28;19963;-69
2021/05/29 08:16:36;;;;;;;;;;;11.30;81.10;;;;;;5005109;28;19944;-69
2021/05/29 08:19:03;;;;;;;;;;;11.40;81.20;;;;;;5000570;28;19917;-68
2021/05/29 08:21:29;;;;;;;;;;;11.30;81.90;;;;;;4995889;28;19924;-69
2021/05/29 08:23:55;;;;;;;;;;;11.30;82.30;;;;;;5003250;28;19913;-69
2021/05/29 08:26:20;;;;;;;;;;;11.10;83.00;;;;;;5003283;28;19917;-69
2021/05/29 08:28:46;;;;;;;;;;;11.20;82.90;;;;;;5003142;28;19929;-69
2021/05/29 08:31:12;;;;;;;;;;;11.30;83.10;;;;;;4998398;28;20286;-69
2021/05/29 08:33:39;;;;;;;;;;;11.40;83.50;;;;;;4997074;28;20050;-69
2021/05/29 08:36:05;;;;;;;;;;;11.50;82.50;;;;;;4994185;28;20468;-71
2021/05/29 08:38:31;;;;;;;;;;;11.40;81.30;;;;;;5001700;28;20115;-69
2021/05/29 08:40:56;;;;;;;;;;;11.70;81.80;;;;;;5004763;28;21344;-68
2021/05/29 08:43:22;;;;;;;;;;;11.90;79.70;;;;;;4995993;28;19929;-70
2021/05/29 08:45:47;;;;;;;;;;;12.00;79.20;;;;;;4998922;28;20421;-69
2021/05/29 08:48:14;;;;;;;;;;;12.10;78.60;;;;;;5001821;28;20272;-69
2021/05/29 08:51:12;;;;;;;;;;;12.40;77.20;;;;;;5003501;28;19928;-69
2021/05/29 08:53:26;;;;;;;;;;;12.60;76.80;;;;;;5001279;28;20220;-70
2021/05/29 08:55:51;;;;;;;;;;;12.70;75.10;;;;;;4999757;28;20020;-68
2021/05/29 08:58:16;;;;;;;;;;;12.70;75.70;;;;;;5001302;28;19979;-69
2021/05/29 09:00:42;;;;;;;;;;;13.00;75.60;;;;;;5001146;28;19924;-69
2021/05/29 09:03:12;;;;;;;;;;;13.00;75.20;;;;;;5004406;28;19929;-67
2021/05/29 09:05:41;;;;;;;;;;;12.90;75.90;;;;;;5006394;28;19979;-69
2021/05/29 09:08:08;;;;;;;;;;;12.90;73.80;;;;;;5002913;28;19929;-68
2021/05/29 09:10:39;;;;;;;;;;;13.00;72.90;;;;;;5004404;28;19924;-71
2021/05/29 09:13:08;;;;;;;;;;;13.00;73.30;;;;;;4998369;28;20243;-69
2021/05/29 09:15:38;;;;;;;;;;;13.10;73.40;;;;;;5003505;28;19936;-70
2021/05/29 09:18:04;;;;;;;;;;;12.80;72.60;;;;;;4987644;28;19914;-68
2021/05/29 09:20:29;;;;;;;;;;;12.80;74.50;;;;;;4998979;28;20449;-68
2021/05/29 09:22:56;;;;;;;;;;;13.20;72.60;;;;;;4998001;28;19944;-69
2021/05/29 09:25:23;;;;;;;;;;;13.00;72.70;;;;;;5004536;28;19981;-69
2021/05/29 09:27:50;;;;;;;;;;;13.00;72.30;;;;;;4996567;28;20025;-69
2021/05/29 09:30:16;;;;;;;;;;;13.00;72.40;;;;;;5001456;28;19949;-69
2021/05/29 09:32:42;;;;;;;;;;;13.30;72.90;;;;;;5003187;28;19985;-68
2021/05/29 09:35:09;;;;;;;;;;;13.40;71.60;;;;;;5005544;28;20000;-70
2021/05/29 09:37:35;;;;;;;;;;;13.20;72.10;;;;;;5001689;28;20012;-70
2021/05/29 09:40:03;;;;;;;;;;;13.40;73.90;;;;;;5004355;28;19936;-70
2021/05/29 09:42:34;;;;;;;;;;;13.10;72.70;;;;;;5000551;28;19935;-70
2021/05/29 09:45:17;;;;;;;;;;;13.00;73.60;;;;;;4999072;28;20255;-71
2021/05/29 09:47:43;;;;;;;;;;;13.30;73.00;;;;;;5000305;28;19921;-71
2021/05/29 09:50:08;;;;;;;;;;;13.70;72.90;;;;;;4986578;28;20265;-70
2021/05/29 09:52:36;;;;;;;;;;;13.40;72.30;;;;;;4996840;28;20275;-70
2021/05/29 09:55:06;;;;;;;;;;;13.20;71.20;;;;;;5008835;28;19917;-70
2021/05/29 09:57:47;;;;;;;;;;;13.30;73.50;;;;;;5006169;28;19913;-70
2021/05/29 10:00:13;;;;;;;;;;;13.40;71.60;;;;;;5003354;28;20382;-69
2021/05/29 10:02:39;;;;;;;;;;;14.00;73.80;;;;;;4998762;28;19948;-71
2021/05/29 10:05:24;;;;;;;;;;;14.00;71.00;;;;;;5003353;28;19913;-70
2021/05/29 10:07:50;;;;;;;;;;;13.80;72.70;;;;;;5001696;28;19925;-70
2021/05/29 10:10:15;;;;;;;;;;;13.20;73.60;;;;;;5005068;28;19910;-71
2021/05/29 10:12:41;;;;;;;;;;;13.00;75.00;;;;;;5006994;28;20412;-70
2021/05/29 10:15:10;;;;;;;;;;;13.40;74.80;;;;;;5003730;28;20001;-71
2021/05/29 10:17:35;;;;;;;;;;;13.80;72.70;;;;;;4996347;28;19994;-71
2021/05/29 10:20:01;;;;;;;;;;;13.50;71.80;;;;;;5004507;28;20270;-71
2021/05/29 10:22:28;;;;;;;;;;;13.60;72.60;;;;;;5000036;28;19925;-70
2021/05/29 10:24:54;;;;;;;;;;;13.00;74.70;;;;;;5002629;28;19913;-71
2021/05/29 10:27:24;;;;;;;;;;;12.90;74.90;;;;;;5001594;28;19968;-70
2021/05/29 10:29:58;;;;;;;;;;;12.60;75.60;;;;;;5002688;28;19964;-71
2021/05/29 10:32:24;;;;;;;;;;;13.00;76.80;;;;;;4995625;28;20012;-71
2021/05/29 10:34:50;;;;;;;;;;;13.10;74.90;;;;;;5001146;28;20402;-69
2021/05/29 10:37:25;;;;;;;;;;;13.00;74.80;;;;;;4998190;28;19983;-70
2021/05/29 10:39:50;;;;;;;;;;;12.80;74.50;;;;;;4996857;28;20031;-70
2021/05/29 10:42:27;;;;;;;;;;;12.80;74.90;;;;;;4999665;28;20048;-71
2021/05/29 10:45:11;;;;;;;;;;;13.20;74.30;;;;;;4996409;28;20257;-71
2021/05/29 10:47:38;;;;;;;;;;;13.30;74.50;;;;;;4995008;28;19964;-71
2021/05/29 10:50:03;;;;;;;;;;;13.00;73.70;;;;;;5001139;28;20196;-71
2021/05/29 10:52:33;;;;;;;;;;;13.10;75.80;;;;;;5002984;28;19918;-70
2021/05/29 10:55:08;;;;;;;;;;;13.10;73.60;;;;;;4997606;28;19928;-70
2021/05/29 10:57:52;;;;;;;;;;;13.00;74.80;;;;;;5002308;28;19958;-70
2021/05/29 11:00:36;;;;;;;;;;;13.30;73.00;;;;;;5000794;28;20048;-70
2021/05/29 11:03:21;;;;;;;;;;;13.40;72.10;;;;;;4998290;28;19963;-70
2021/05/29 11:05:47;;;;;;;;;;;13.00;74.50;;;;;;4999356;28;20350;-71
2021/05/29 11:08:31;;;;;;;;;;;13.10;73.90;;;;;;5003255;28;19968;-71
2021/05/29 11:10:57;;;;;;;;;;;13.00;73.70;;;;;;5003747;28;19923;-71
2021/05/29 11:13:52;;;;;;;;;;;12.90;74.90;;;;;;4994833;28;20254;-70
2021/05/29 11:16:17;;;;;;;;;;;13.00;74.50;;;;;;4985168;28;20070;-72
2021/05/29 11:19:01;;;;;;;;;;;13.10;75.60;;;;;;5001565;28;19917;-72
2021/05/29 11:21:27;;;;;;;;;;;12.90;74.70;;;;;;5000886;28;19933;-70
2021/05/29 11:23:52;;;;;;;;;;;12.90;75.60;;;;;;5004702;28;19914;-69
2021/05/29 11:26:24;;;;;;;;;;;13.00;75.30;;;;;;5021618;28;19921;-71
2021/05/29 11:28:49;;;;;;;;;;;12.90;74.60;;;;;;5000243;28;19940;-72
2021/05/29 11:31:15;;;;;;;;;;;12.90;75.50;;;;;;5003829;28;19917;-70
2021/05/29 11:33:52;;;;;;;;;;;12.70;76.10;;;;;;4995831;28;20016;-70
2021/05/29 11:36:27;;;;;;;;;;;12.50;76.50;;;;;;5003673;28;19918;-71
2021/05/29 11:39:04;;;;;;;;;;;12.30;77.80;;;;;;5005257;28;19918;-71
2021/05/29 11:41:30;;;;;;;;;;;12.70;76.90;;;;;;5001571;28;19936;-71
2021/05/29 11:43:56;;;;;;;;;;;12.60;76.90;;;;;;4999986;28;19913;-72
2021/05/29 11:46:22;;;;;;;;;;;12.70;77.40;;;;;;4996337;28;20540;-70
2021/05/29 11:48:54;;;;;;;;;;;12.50;77.20;;;;;;5001073;28;19913;-71
2021/05/29 11:51:21;;;;;;;;;;;12.50;77.60;;;;;;4999422;28;19998;-71
2021/05/29 11:53:48;;;;;;;;;;;12.80;77.90;;;;;;5002408;28;19970;-70
2021/05/29 11:56:15;;;;;;;;;;;12.70;77.60;;;;;;5001309;28;19913;-71
2021/05/29 11:58:42;;;;;;;;;;;12.40;76.50;;;;;;4996097;28;20113;-70
2021/05/29 12:01:07;;;;;;;;;;;12.80;77.10;;;;;;4992040;28;19914;-70
2021/05/29 12:03:39;;;;;;;;;;;12.70;76.10;;;;;;4983815;28;20315;-69
2021/05/29 12:06:05;;;;;;;;;;;12.90;76.50;;;;;;5000124;28;19964;-69
2021/05/29 12:08:31;;;;;;;;;;;13.10;75.10;;;;;;4999456;28;20360;-69
2021/05/29 12:10:56;;;;;;;;;;;13.30;75.40;;;;;;4998883;28;20020;-69
2021/05/29 12:13:26;;;;;;;;;;;13.50;75.10;;;;;;4999919;28;19914;-68
2021/05/29 12:16:02;;;;;;;;;;;14.00;74.30;;;;;;5000738;28;19917;-69
2021/05/29 12:18:37;;;;;;;;;;;13.70;72.60;;;;;;4998889;28;20055;-70
2021/05/29 12:21:04;;;;;;;;;;;14.20;71.60;;;;;;4997019;28;19965;-69
2021/05/29 12:23:30;;;;;;;;;;;14.10;70.60;;;;;;4999182;28;19925;-69
2021/05/29 12:25:55;;;;;;;;;;;14.50;69.70;;;;;;5001341;28;20319;-69
2021/05/29 12:28:21;;;;;;;;;;;14.30;70.90;;;;;;5001656;28;19958;-68
2021/05/29 12:30:48;;;;;;;;;;;14.80;69.70;;;;;;4998502;28;20932;-69
2021/05/29 12:33:18;;;;;;;;;;;14.60;68.30;;;;;;5000337;28;20535;-69
2021/05/29 12:35:43;;;;;;;;;;;14.50;69.90;;;;;;4999647;28;20019;-68
2021/05/29 12:38:10;;;;;;;;;;;14.70;68.70;;;;;;4999214;28;20007;-69
2021/05/29 12:40:36;;;;;;;;;;;14.70;70.10;;;;;;4936431;28;1808065;-69
2021/05/29 12:43:01;;;;;;;;;;;14.40;69.70;;;;;;4999208;28;19929;-69
2021/05/29 12:45:28;;;;;;;;;;;14.00;70.80;;;;;;5001796;28;19982;-69
2021/05/29 12:47:55;;;;;;;;;;;14.00;72.30;;;;;;4998933;28;19925;-69
2021/05/29 12:50:25;;;;;;;;;;;14.10;70.70;;;;;;5002305;28;19996;-68
2021/05/29 12:52:51;;;;;;;;;;;14.30;71.70;;;;;;4993315;28;19972;-69
2021/05/29 12:55:20;;;;;;;;;;;14.70;73.20;;;;;;5000349;28;20300;-69
2021/05/29 12:57:46;;;;;;;;;;;14.60;69.00;;;;;;4998506;28;20001;-68
2021/05/29 13:00:22;;;;;;;;;;;14.60;70.10;;;;;;5002209;28;20000;-70
2021/05/29 13:08:28;;;;;;;;;;;14.40;68.70;;;;;;5001825;28;19974;-69
2021/05/29 13:10:59;;;;;;;;;;;14.60;70.50;;;;;;5000198;28;19918;-69
2021/05/29 13:13:25;;;;;;;;;;;14.50;70.90;;;;;;4997265;28;19933;-70
2021/05/29 13:16:00;;;;;;;;;;;14.60;72.10;;;;;;5000500;28;20008;-68
2021/05/29 13:18:26;;;;;;;;;;;14.60;69.90;;;;;;4996998;28;19928;-70
2021/05/29 13:21:04;;;;;;;;;;;14.60;69.40;;;;;;4997384;28;19926;-69
2021/05/29 13:23:42;;;;;;;;;;;14.50;69.60;;;;;;4988820;28;19949;-69
2021/05/29 13:26:08;;;;;;;;;;;14.60;69.40;;;;;;4998119;28;19913;-71
2021/05/29 13:28:33;;;;;;;;;;;15.00;68.00;;;;;;4993797;28;20323;-69
2021/05/29 13:30:59;;;;;;;;;;;14.60;68.70;;;;;;4997415;28;19922;-70
2021/05/29 13:33:24;;;;;;;;;;;14.60;69.30;;;;;;5009892;28;20091;-70
2021/05/29 13:35:50;;;;;;;;;;;15.00;70.00;;;;;;4998229;28;19921;-70
2021/05/29 13:38:15;;;;;;;;;;;14.90;67.80;;;;;;4998431;28;20063;-70
2021/05/29 13:40:41;;;;;;;;;;;14.90;70.20;;;;;;4997813;28;20121;-70
2021/05/29 13:43:13;;;;;;;;;;;14.50;68.50;;;;;;4996898;28;19990;-70
2021/05/29 13:45:39;;;;;;;;;;;14.50;69.70;;;;;;5000773;28;20428;-69
2021/05/29 13:48:05;;;;;;;;;;;14.30;70.20;;;;;;4998444;28;19957;-69
2021/05/29 13:50:30;;;;;;;;;;;14.70;70.00;;;;;;4999452;28;19936;-70
2021/05/29 13:52:56;;;;;;;;;;;15.00;70.10;;;;;;4998738;28;19914;-69
2021/05/29 13:55:22;;;;;;;;;;;14.80;70.70;;;;;;4999389;28;20013;-71
2021/05/29 13:57:48;;;;;;;;;;;14.40;69.50;;;;;;4999369;28;20532;-70
2021/05/29 14:00:15;;;;;;;;;;;14.30;69.90;;;;;;4998152;28;20020;-70
2021/05/29 14:02:40;;;;;;;;;;;14.40;70.10;;;;;;4997852;28;19926;-70
2021/05/29 14:05:07;;;;;;;;;;;14.60;70.10;;;;;;4998842;28;19940;-69
2021/05/29 14:07:33;;;;;;;;;;;15.50;66.40;;;;;;4999034;28;19948;-71
2021/05/29 14:09:58;;;;;;;;;;;15.90;66.50;;;;;;5002260;28;19957;-71
2021/05/29 14:12:24;;;;;;;;;;;16.30;62.50;;;;;;4995706;28;19929;-70
2021/05/29 14:14:49;;;;;;;;;;;16.40;63.60;;;;;;4996877;28;19940;-70
2021/05/29 14:17:15;;;;;;;;;;;16.30;63.00;;;;;;4998910;28;20395;-69
2021/05/29 14:19:40;;;;;;;;;;;16.10;64.00;;;;;;4998102;28;19928;-70
2021/05/29 14:22:06;;;;;;;;;;;16.20;63.10;;;;;;4997102;28;19928;-70
2021/05/29 14:24:32;;;;;;;;;;;16.00;64.60;;;;;;4998519;28;19957;-70
2021/05/29 14:26:58;;;;;;;;;;;16.10;65.00;;;;;;4998275;28;19929;-71
2021/05/29 14:29:24;;;;;;;;;;;15.80;63.90;;;;;;4999455;28;19913;-70
2021/05/29 14:31:49;;;;;;;;;;;16.50;62.40;;;;;;4996692;28;20113;-70
2021/05/29 14:34:15;;;;;;;;;;;17.60;59.00;;;;;;4996938;28;19914;-70
2021/05/29 14:36:40;;;;;;;;;;;18.80;55.30;;;;;;4995789;28;19999;-71